sensor_id;sensor_type;location;lat;lon;timestamp;P1;durP1;ratioP1;P2;durP2;ratioP2
37645;SDS011;23489;49.600;6.138;2023-08-30T10:37:02;5.72;;;3.45;;
37645;SDS011;23489;49.600;6.138;2023-08-30T10:39:33;6.45;;;3.10;;
37645;SDS011;23489;49.600;6.138;2023-08-30T10:42:09;4.82;;;2.90;;
37645;SDS011;23489;49.600;6.138;2023-08-30T10:47:24;5.80;;;3.53;;
37645;SDS011;23489;49.600;6.138;2023-08-30T10:49:54;8.93;;;3.67;;
37645;SDS011;23489;49.600;6.138;2023-08-30T10:52:21;6.70;;;3.75;;
37645;SDS011;23489;49.600;6.138;2023-08-30T10:54:47;4.75;;;3.80;;
37645;SDS011;23489;49.600;6.138;2023-08-30T10:57:14;5.95;;;3.42;;
37645;SDS011;23489;49.600;6.138;2023-08-30T11:00:27;7.25;;;3.50;;
37645;SDS011;23489;49.600;6.138;2023-08-30T11:02:31;8.38;;;3.83;;
37645;SDS011;23489;49.600;6.138;2023-08-30T11:04:57;10.82;;;3.60;;
37645;SDS011;23489;49.600;6.138;2023-08-30T11:07:26;4.13;;;3.10;;
37645;SDS011;23489;49.600;6.138;2023-08-30T11:09:52;5.60;;;3.42;;
37645;SDS011;23489;49.600;6.138;2023-08-30T11:46:30;6.93;;;2.97;;
37645;SDS011;23489;49.600;6.138;2023-08-30T11:48:56;5.93;;;3.30;;
37645;SDS011;23489;49.600;6.138;2023-08-30T11:51:22;5.95;;;3.47;;
37645;SDS011;23489;49.600;6.138;2023-08-30T11:53:47;4.78;;;3.25;;
37645;SDS011;23489;49.600;6.138;2023-08-30T11:56:14;5.38;;;2.97;;
37645;SDS011;23489;49.600;6.138;2023-08-30T11:58:41;6.57;;;3.00;;
37645;SDS011;23489;49.600;6.138;2023-08-30T12:01:08;7.70;;;3.72;;
37645;SDS011;23489;49.600;6.138;2023-08-30T12:03:34;5.13;;;3.45;;
37645;SDS011;23489;49.600;6.138;2023-08-30T12:06:01;5.60;;;3.67;;
37645;SDS011;23489;49.600;6.138;2023-08-30T12:08:30;6.28;;;3.60;;
37645;SDS011;23489;49.600;6.138;2023-08-30T12:10:56;9.18;;;4.28;;
37645;SDS011;23489;49.600;6.138;2023-08-30T12:15:58;5.68;;;4.32;;
37645;SDS011;23489;49.600;6.138;2023-08-30T12:18:25;8.20;;;4.32;;
37645;SDS011;23489;49.600;6.138;2023-08-30T12:20:55;5.28;;;4.00;;
37645;SDS011;23489;49.600;6.138;2023-08-30T12:23:25;6.03;;;4.28;;
37645;SDS011;23489;49.600;6.138;2023-08-30T12:26:05;6.68;;;3.92;;
37645;SDS011;23489;49.600;6.138;2023-08-30T12:28:35;4.40;;;4.00;;
37645;SDS011;23489;49.600;6.138;2023-08-30T12:31:05;5.65;;;3.80;;
37645;SDS011;23489;49.600;6.138;2023-08-30T12:33:32;5.07;;;3.70;;
37645;SDS011;23489;49.600;6.138;2023-08-30T12:35:59;4.60;;;3.58;;
37645;SDS011;23489;49.600;6.138;2023-08-30T12:38:25;7.07;;;4.03;;
37645;SDS011;23489;49.600;6.138;2023-08-30T12:40:52;5.95;;;3.90;;
37645;SDS011;23489;49.600;6.138;2023-08-30T12:43:19;6.45;;;3.83;;
37645;SDS011;23489;49.600;6.138;2023-08-30T12:45:45;4.60;;;3.47;;
37645;SDS011;23489;49.600;6.138;2023-08-30T12:48:12;5.10;;;3.33;;
37645;SDS011;23489;49.600;6.138;2023-08-30T12:50:40;3.00;;;2.47;;
37645;SDS011;23489;49.600;6.138;2023-08-30T12:53:07;4.68;;;2.65;;
37645;SDS011;23489;49.600;6.138;2023-08-30T12:55:34;3.97;;;2.50;;
37645;SDS011;23489;49.600;6.138;2023-08-30T12:57:59;10.75;;;3.10;;
37645;SDS011;23489;49.600;6.138;2023-08-30T13:00:26;3.88;;;2.45;;
37645;SDS011;23489;49.600;6.138;2023-08-30T13:02:52;2.60;;;1.98;;
37645;SDS011;23489;49.600;6.138;2023-08-30T13:05:18;5.10;;;2.58;;
37645;SDS011;23489;49.600;6.138;2023-08-30T13:07:44;4.20;;;2.70;;
37645;SDS011;23489;49.600;6.138;2023-08-30T13:10:09;4.53;;;2.90;;
37645;SDS011;23489;49.600;6.138;2023-08-30T19:54:44;11.68;;;8.00;;
37645;SDS011;23489;49.600;6.138;2023-08-30T19:57:14;11.02;;;6.88;;
37645;SDS011;23489;49.600;6.138;2023-08-30T19:59:43;8.75;;;6.18;;
37645;SDS011;23489;49.600;6.138;2023-08-30T20:02:09;13.55;;;6.65;;
37645;SDS011;23489;49.600;6.138;2023-08-30T20:04:36;9.02;;;6.22;;
37645;SDS011;23489;49.600;6.138;2023-08-30T20:07:02;8.52;;;6.40;;
37645;SDS011;23489;49.600;6.138;2023-08-30T20:09:29;9.63;;;6.07;;
37645;SDS011;23489;49.600;6.138;2023-08-30T20:11:55;8.35;;;6.63;;
37645;SDS011;23489;49.600;6.138;2023-08-30T20:14:21;8.68;;;6.82;;
37645;SDS011;23489;49.600;6.138;2023-08-30T20:16:46;11.50;;;7.25;;
37645;SDS011;23489;49.600;6.138;2023-08-30T20:19:13;12.18;;;7.53;;
37645;SDS011;23489;49.600;6.138;2023-08-30T20:21:41;9.95;;;7.43;;
37645;SDS011;23489;49.600;6.138;2023-08-30T20:24:09;10.18;;;6.90;;
37645;SDS011;23489;49.600;6.138;2023-08-30T20:26:35;9.88;;;7.03;;
37645;SDS011;23489;49.600;6.138;2023-08-30T20:29:02;9.75;;;7.80;;
37645;SDS011;23489;49.600;6.138;2023-08-30T20:31:29;8.82;;;7.15;;
37645;SDS011;23489;49.600;6.138;2023-08-30T20:33:55;9.02;;;7.20;;
37645;SDS011;23489;49.600;6.138;2023-08-30T20:36:20;11.52;;;7.75;;
37645;SDS011;23489;49.600;6.138;2023-08-30T20:38:46;11.38;;;7.78;;
37645;SDS011;23489;49.600;6.138;2023-08-30T20:41:11;12.10;;;6.97;;
37645;SDS011;23489;49.600;6.138;2023-08-30T20:43:37;7.78;;;6.43;;
37645;SDS011;23489;49.600;6.138;2023-08-30T20:46:03;11.55;;;7.47;;
37645;SDS011;23489;49.600;6.138;2023-08-30T20:48:29;9.00;;;7.85;;
37645;SDS011;23489;49.600;6.138;2023-08-30T20:50:55;13.23;;;7.43;;
37645;SDS011;23489;49.600;6.138;2023-08-30T20:53:30;9.70;;;7.25;;
37645;SDS011;23489;49.600;6.138;2023-08-30T20:55:57;8.88;;;7.18;;
37645;SDS011;23489;49.600;6.138;2023-08-30T20:58:22;9.27;;;6.82;;
37645;SDS011;23489;49.600;6.138;2023-08-30T21:00:57;12.65;;;6.63;;
37645;SDS011;23489;49.600;6.138;2023-08-30T21:03:23;8.75;;;6.57;;
37645;SDS011;23489;49.600;6.138;2023-08-30T21:05:52;8.80;;;6.80;;
37645;SDS011;23489;49.600;6.138;2023-08-30T21:08:18;9.02;;;6.22;;
37645;SDS011;23489;49.600;6.138;2023-08-30T21:10:44;9.02;;;6.50;;
37645;SDS011;23489;49.600;6.138;2023-08-30T21:13:11;12.10;;;6.93;;
37645;SDS011;23489;49.600;6.138;2023-08-30T21:15:36;10.40;;;6.35;;
37645;SDS011;23489;49.600;6.138;2023-08-30T21:18:02;12.68;;;6.55;;
